logo
Search for airport 
image banner adimage banner adimage banner ad
image banner ad

EHH036 - Rinsemageest

Located in , Netherlands

ICAO - , IATA -

Data provided by Airmate  

General information

Coordinates: N53°18'15" E5°56'26"
Elevation is feet MSL.
 
View others Airports in Friesland

Operational data

Special qualification required
Current time UTC:
Current local time:
Weather at : EHLW - Leeuwarden/Leeuwarden ( 15 km )
METAR: EHLW 171255Z AUTO 28011KT 220V300 9999 BKN017 OVC020 19/15 Q1020 WHT NOSIG
TAF: TAF EHLW 170846Z 1709/1721 28010KT 9999 SCT015 BKN020 BECMG 1710/1712 SCT020 SCT035 PROB40 TEMPO 1717/1721 SCT015
View NOTAMs / SUP AIP / TFR affecting this airport [VIEW]
Communications frequencies: [VIEW]

Runways:

Airport contact information

Address: Netherlands

Satellite view of EHH036